Sierra Nevada Aquatic Research Lab (SNARL) Reserve, California Weather observations

Data are for 10 minute period ending at time listed.
 Day   Time   Solar   Ave.   Ave.  Ave.  Vector  Max.   Baro.   Total    
  of    of     Rad.   Air    Rel.  Wind   Wind   Wind  Press.  Precip.   
Year   Day            Temp.  Hum.  Speed  Dir.   Gust                    
2016   (PST)  Kw/m2    F      %     mph   deg.    mph    mb.     in.     
-------------------------------------------------------------------------
 239   18:20   0.02   65.9    33    7.9   230    13.1   785.1    0.00 
 239   18:30   0.01   66.2    33   10.7   228    15.3   785.1    0.00 
 239   18:40   0.00   65.9    34   11.0   225    17.0   785.3    0.00 
 239   18:50   0.00   65.1    34    5.4   248     9.9   785.3    0.00 
 239   19:00   0.00   62.8    35    6.4   256     9.1   785.3    0.00 
 239   19:10   0.00   61.5    37    3.1   284     6.1   785.4    0.00 
 239   19:20   0.00   60.0    39    2.7   315     6.1   785.6    0.00 
 239   19:30   0.00   59.2    40    1.8   199     4.0   785.7    0.00 
 239   19:40   0.00   57.6    43    2.9   262     6.6   785.9    0.00 
 239   19:50   0.00   56.6    41    3.8   268     6.0   786.0    0.00 
 239   20:00   0.00   56.3    40    4.6   228     7.0   786.0    0.00 
 239   20:10   0.00   55.1    42    2.1   300     3.9   786.0    0.00 
 239   20:20   0.00   54.5    44    2.3   318     6.4   786.1    0.00 
 239   20:30   0.00   55.1    43    2.6   293     7.4   786.3    0.00 
 239   20:40   0.00   54.1    44    3.6   107     6.0   786.4    0.00 
 239   20:50   0.00   53.6    46    2.1    36     4.9   786.4    0.00 
 239   21:00   0.00   50.3    48    1.5   180     2.5   786.4    0.00 
 239   21:10   0.00   49.5    52    1.3   256     4.6   786.5    0.00 
 239   21:20   0.00   49.1    51    2.9   239     4.2   786.6    0.00 
 239   21:30   0.00   48.9    51    0.9   199     1.8   786.7    0.00 
 239   21:40   0.00   48.9    51    2.9   251     5.0   786.7    0.00 
 239   21:50   0.00   49.9    50    2.7   249     4.5   786.7    0.00 
 239   22:00   0.00   49.6    52    2.5   327     9.3   786.7    0.00 
 239   22:10   0.00   51.2    48    4.3    32     7.2   786.9    0.00 
 239   22:20   0.00   51.2    48    2.3   310     4.3   786.9    0.00 
 239   22:30   0.00   49.4    49    6.0   238     8.0   786.9    0.00 
 239   22:40   0.00   48.9    50    4.1   252     6.9   786.8    0.00 
 239   22:50   0.00   50.2    52    2.3   320     4.3   786.9    0.00 
 239   23:00   0.00   49.2    52    2.1   349     5.0   786.9    0.00 
 239   23:10   0.00   49.2    52    2.8   299     5.0   786.9    0.00 
 239   23:20   0.00   47.2    53    1.5   273     4.7   786.9    0.00 
 239   23:30   0.00   46.3    56    0.5    19     2.1   787.0    0.00 
 239   23:40   0.00   45.1    57    0.9    26     2.9   787.0    0.00 
 239   23:50   0.00   43.6    59    1.5    86     2.9   787.0    0.00 
 240    0:00   0.00   43.7    60    0.6   184     2.2   787.0    0.00 
 240    0:10   0.00   43.9    59    1.7   217     4.7   787.1    0.00 
 240    0:20   0.00   42.5    61    1.2   242     2.7   787.0    0.00 
 240    0:30   0.00   43.1    63    2.4   251     3.8   787.1    0.00 
 240    0:40   0.00   41.6    63    2.4   213     3.7   787.0    0.00 
 240    0:50   0.00   42.1    64    2.0   102     4.8   787.0    0.00 
 240    1:00   0.00   42.1    64    1.7    70     4.6   787.0    0.00 
 240    1:10   0.00   41.5    65    1.2    55     3.1   787.0    0.00 
 240    1:20   0.00   41.2    66    1.9   224     3.3   786.9    0.00 
 240    1:30   0.00   40.7    63    1.8   234     3.1   786.9    0.00 
 240    1:40   0.00   40.3    68    1.8    94     4.0   787.0    0.00 
 240    1:50   0.00   39.7    68    0.9    86     3.2   787.0    0.00 
 240    2:00   0.00   39.6    66    1.9   206     3.7   787.0    0.00 
 240    2:10   0.00   39.8    64    2.7   219     3.8   787.0    0.00 
 240    2:20   0.00   40.7    68    3.7   268     5.6   786.9    0.00 
 240    2:30   0.00   42.8    64    1.5   334     2.9   786.9    0.00 
 240    2:40   0.00   41.6    63    0.8   335     2.7   787.0    0.00 
 240    2:50   0.00   40.6    66    0.2   314     2.0   787.0    0.00 
 240    3:00   0.00   40.2    71    1.1   296     1.8   787.0    0.00 
 240    3:10   0.00   39.0    73    1.4   263     3.7   786.9    0.00 
 240    3:20   0.00   37.9    69    0.9   229     3.9   786.9    0.00 
 240    3:30   0.00   37.4    72    0.4   175     1.9   786.9    0.00 
 240    3:40   0.00   36.6    72    1.0   217     3.9   786.9    0.00 
 240    3:50   0.00   37.6    73    1.2   235     2.7   786.9    0.00 
 240    4:00   0.00   37.6    77    0.5    69     2.1   787.0    0.00 
 240    4:10   0.00   37.2    73    0.5   184     1.8   787.1    0.00 
 240    4:20   0.00   36.7    72    1.2   201     2.4   787.1    0.00 
 240    4:30   0.00   36.0    73    0.6   168     1.7   787.1    0.00 
 240    4:40   0.00   36.1    70    1.5   236     3.1   787.1    0.00 
 240    4:50   0.00   36.2    73    1.7   264     4.7   787.1    0.00 
 240    5:00   0.00   37.6    76    1.3   344     2.7   787.1    0.00 
 240    5:10   0.00   36.7    74    1.8   268     3.1   787.2    0.00 
 240    5:20   0.00   36.1    78    0.8   252     1.8   787.3    0.00 
 240    5:30   0.00   36.3    81    1.3   277     2.0   787.3    0.00 
 240    5:40   0.01   36.0    82    0.9   327     2.3   787.5    0.00 
 240    5:50   0.03   36.1    77    1.1   314     3.2   787.5    0.00 
 240    6:00   0.06   37.7    72    0.2   286     1.5   787.6    0.00 
 240    6:10   0.08   39.5    68    0.2   229     1.2   787.7    0.00 
 240    6:20   0.11   43.1    64    1.0   164     1.8   787.8    0.00 
 240    6:30   0.14   46.6    57    1.7    91     2.7   787.9    0.00 
 240    6:40   0.18   49.6    52    0.3   122     2.0   788.1    0.00 
 240    6:50   0.21   54.3    44    0.1     2     0.7   788.1    0.00 
 240    7:00   0.25   55.2    44    1.1    90     2.2   788.3    0.00 
 240    7:10   0.29   56.1    43    0.4    69     2.0   788.3    0.00 
 240    7:20   0.32   57.7    42    0.9    23     2.7   788.3    0.00 
 240    7:30   0.36   58.7    42    1.4    48     2.9   788.3    0.00 
 240    7:40   0.40   59.8    40    0.9    54     2.1   788.3    0.00 
 240    7:50   0.43   61.4    40    1.3    73     3.1   788.2    0.00 
 240    8:00   0.47   61.4    40    1.9    75     4.2   788.1    0.00 
 240    8:10   0.47   62.7    38    1.4    51     2.9   788.1    0.00 
 240    8:20   0.54   64.4    36    2.2    73     5.1   788.0    0.00 
 240    8:30   0.57   64.9    36    3.3    71     6.9   788.0    0.00 
 240    8:40   0.60   65.7    36    3.1    64     6.9   788.0    0.00 
 240    8:50   0.63   66.8    34    3.4    77     7.2   787.9    0.00 
 240    9:00   0.66   68.2    32    2.5    68     4.5   787.9    0.00 
 240    9:10   0.69   69.4    30    2.8    80     4.5   787.9    0.00 
 240    9:20   0.72   70.4    28    2.9    64     5.3   787.8    0.00 
 240    9:30   0.75   71.5    24    2.6    84     5.3   787.8    0.00 
 240    9:40   0.77   72.9    21    2.8   102     6.6   787.8    0.00 
 240    9:50   0.68   73.3    20    1.5    59     6.2   787.9    0.00 
 240   10:00   0.82   74.0    19    2.1   102     5.7   787.9    0.00 
 240   10:10   0.84   74.0    18    5.6    86    10.2   787.9    0.00 
 240   10:20   0.85   74.5    18    5.7    91    11.6   787.9    0.00 
 240   10:30   0.87   74.9    16    2.4    69     8.6   787.8    0.00 
 240   10:40   0.88   74.6    16    3.7    65     9.1   787.9    0.00 
 240   10:50   0.89   75.5    18    4.7   114     8.6   787.8    0.00 
 240   11:00   0.90   75.9    17    3.8   225     7.2   787.8    0.00 
 240   11:10   0.92   76.2    16    4.6   199     9.4   787.7    0.00 
 240   11:20   0.92   75.8    16    4.8   240     9.6   787.6    0.00 
 240   11:30   0.93   77.1    16    3.4    91     9.7   787.5    0.00 
 240   11:40   0.94   77.2    16    3.0    38     8.1   787.4    0.00 
 240   11:50   0.94   76.8    16    5.2    55    12.5   787.4    0.00 
 240   12:00   0.94   77.8    16    3.0    40     7.5   787.4    0.00 
 240   12:10   0.94   77.5    15    2.8     7     7.2   787.3    0.00 
 240   12:20   0.93   77.5    16    6.2   321    15.1   787.2    0.00 
 240   12:30   0.93   78.7    15    5.8    65    11.5   787.1    0.00 
 240   12:40   0.92   79.1    14    3.6    86     8.6   787.1    0.00 
 240   12:50   0.91   78.9    15    5.6    40    24.9   787.0    0.00 
 240   13:00   0.91   79.4    15    4.3    61    11.2   786.9    0.00 
 240   13:10   0.90   79.3    14    4.9    41    11.3   786.8    0.00 
 240   13:20   0.89   78.7    15    4.1    98     8.3   786.7    0.00 
 240   13:30   0.87   79.4    14    2.0    24     5.6   786.5    0.00 
 240   13:40   0.86   80.4    15    5.4    66    12.6   786.4    0.00 
 240   13:50   0.84   79.6    14    5.8    17    12.2   786.4    0.00 
 240   14:00   0.82   79.8    14    4.3    61    10.2   786.3    0.00 
 240   14:10   0.80   80.3    14    6.7    31    11.6   786.2    0.00 
 240   14:20   0.78   80.6    14    4.6    38    10.6   786.2    0.00 
 240   14:30   0.63   80.3    14    6.7    81    14.5   786.2    0.00 
 240   14:40   0.67   78.4    15    6.9    79    13.2   786.1    0.00 
 240   14:50   0.73   79.5    14    8.7   106    13.7   786.0    0.00 
 240   15:00   0.68   80.0    14    5.1   123    11.5   786.0    0.00 
 240   15:10   0.24   78.6    15    4.6    58    10.4   785.9    0.00 
 240   15:20   0.26   76.7    16    4.8    84    10.3   785.9    0.00 
 240   15:30   0.19   76.8    16    3.1    37     7.1   785.8    0.00 
 240   15:40   0.14   76.4    16    2.5    56     8.5   785.8    0.00 
 240   15:50   0.10   75.3    17    2.4    46     5.4   785.8    0.00 
 240   16:00   0.09   74.5    19    2.9   301     8.2   785.9    0.00 
 240   16:10   0.18   74.1    23    6.2   274    10.9   785.8    0.00 
 240   16:20   0.43   76.1    22    8.7   264    15.9   785.8    0.00 
 240   16:30   0.37   77.0    22    7.1   247    12.7   785.8    0.00 
 240   16:40   0.33   76.9    22    9.0   247    16.4   785.8    0.00 
 240   16:50   0.23   76.1    22   10.6   220    16.7   785.8    0.00 
 240   17:00   0.25   75.1    22   10.6   222    16.4   785.8    0.00 
 240   17:10   0.22   75.1    23   11.8   223    18.0   785.8    0.00 
 240   17:20   0.19   74.3    23   13.4   215    19.6   785.8    0.00 
 240   17:30   0.15   73.5    24   14.4   220    20.6   785.8    0.00 
 240   17:40   0.12   73.0    24   15.4   221    21.5   785.8    0.00 
 240   17:50   0.10   72.4    25   17.4   219    25.8   785.8    0.00 
 240   18:00   0.07   71.9    25   16.2   223    23.6   785.9    0.00 
 240   18:10   0.04   71.2    25   16.8   214    25.4   785.9    0.00 

Return to SNARL Reserve graphs page.


Western Regional Climate Center,wrcc@dri.edu